createdAt,value
2023-04-02T00:01:44.096Z,7.27
2023-04-02T00:04:30.140Z,7.35
2023-04-02T00:07:31.008Z,7.40
2023-04-02T00:10:37.912Z,7.42
2023-04-02T00:13:44.773Z,7.41
2023-04-02T00:16:32.953Z,7.39
2023-04-02T00:19:25.878Z,7.33
2023-04-02T00:22:17.458Z,7.28
2023-04-02T00:25:11.363Z,7.24
2023-04-02T00:27:57.393Z,7.22
2023-04-02T00:30:51.078Z,7.23
2023-04-02T00:33:37.967Z,7.22
2023-04-02T00:36:26.645Z,7.25
2023-04-02T00:39:42.436Z,7.21
2023-04-02T00:42:31.197Z,7.22
2023-04-02T00:45:24.660Z,7.18
2023-04-02T00:48:45.698Z,7.17
2023-04-02T00:52:13.732Z,7.17
2023-04-02T00:55:13.858Z,7.16
2023-04-02T00:58:00.816Z,7.15
2023-04-02T01:00:50.683Z,7.11
2023-04-02T01:03:37.852Z,7.10
2023-04-02T01:06:34.310Z,7.02
2023-04-02T01:09:46.166Z,6.92
2023-04-02T01:12:56.015Z,6.88
2023-04-02T01:15:48.236Z,6.84
2023-04-02T01:19:21.669Z,6.79
2023-04-02T01:22:10.457Z,6.79
2023-04-02T01:25:00.650Z,6.74
2023-04-02T01:28:15.350Z,6.72
2023-04-02T01:31:03.518Z,6.66
2023-04-02T01:33:50.387Z,6.54
2023-04-02T01:36:52.732Z,6.38
2023-04-02T01:40:19.045Z,6.35
2023-04-02T01:43:12.292Z,6.34
2023-04-02T01:46:01.859Z,6.31
2023-04-02T01:48:49.200Z,6.30
2023-04-02T01:51:41.275Z,6.28
2023-04-02T01:54:29.075Z,6.22
2023-04-02T01:57:16.783Z,6.18
2023-04-02T02:00:10.291Z,6.16
2023-04-02T02:03:01.036Z,6.15
2023-04-02T02:05:48.188Z,6.17
2023-04-02T02:08:55.313Z,6.14
2023-04-02T02:11:42.070Z,6.14
2023-04-02T02:14:30.681Z,6.15
2023-04-02T02:17:24.293Z,6.13
2023-04-02T02:20:11.430Z,6.13
2023-04-02T02:22:58.260Z,6.09
2023-04-02T02:25:45.437Z,6.08
2023-04-02T02:28:36.671Z,6.06
2023-04-02T02:31:28.222Z,6.06
2023-04-02T02:34:20.137Z,6.03
2023-04-02T02:37:23.372Z,5.96
2023-04-02T02:40:24.721Z,6.00
2023-04-02T02:43:13.525Z,5.96
2023-04-02T02:46:00.015Z,5.95
2023-04-02T02:48:46.871Z,5.93
2023-04-02T02:51:49.234Z,5.89
2023-04-02T02:54:43.052Z,5.86
2023-04-02T02:57:32.725Z,5.83
2023-04-02T03:00:19.907Z,5.78
2023-04-02T03:03:14.001Z,5.76
2023-04-02T03:06:03.513Z,5.75
2023-04-02T03:09:12.339Z,5.70
2023-04-02T03:12:10.427Z,5.68
2023-04-02T03:15:08.579Z,5.70
2023-04-02T03:18:14.404Z,5.71
2023-04-02T03:21:20.756Z,5.71
2023-04-02T03:24:22.829Z,5.68
2023-04-02T03:27:23.084Z,5.70
2023-04-02T03:30:28.884Z,5.72
2023-04-02T03:33:33.213Z,5.73
2023-04-02T03:36:21.253Z,5.75
2023-04-02T03:39:32.473Z,5.73
2023-04-02T03:42:26.379Z,5.74
2023-04-02T03:45:27.425Z,5.72
2023-04-02T03:48:40.682Z,5.68
2023-04-02T03:51:53.470Z,5.59
2023-04-02T03:54:41.046Z,5.66
2023-04-02T03:58:07.763Z,5.58
2023-04-02T04:00:56.802Z,5.56
2023-04-02T04:03:47.433Z,5.51
2023-04-02T04:06:34.934Z,5.45
2023-04-02T04:09:27.492Z,5.43
2023-04-02T04:12:26.923Z,5.41
2023-04-02T04:15:25.759Z,5.39
2023-04-02T04:18:21.676Z,5.38
2023-04-02T04:21:30.035Z,5.33
2023-04-02T04:24:25.203Z,5.34
2023-04-02T04:27:25.018Z,5.33
2023-04-02T04:30:51.389Z,5.33
2023-04-02T04:33:42.813Z,5.36
2023-04-02T04:36:48.059Z,5.38
2023-04-02T04:39:48.977Z,5.38
2023-04-02T04:42:38.659Z,5.29
2023-04-02T04:45:36.759Z,5.28
2023-04-02T04:48:40.044Z,5.25
2023-04-02T04:57:09.602Z,5.23
2023-04-02T05:00:01.377Z,5.27
2023-04-02T05:02:52.377Z,5.32
2023-04-02T05:07:00.590Z,5.31
2023-04-02T05:10:15.769Z,5.32
2023-04-02T05:17:28.603Z,5.38
2023-04-02T05:21:18.516Z,5.39
2023-04-02T05:24:29.186Z,5.43
2023-04-02T05:27:31.510Z,5.49
2023-04-02T05:30:24.571Z,5.55
2023-04-02T05:33:37.785Z,5.58
2023-04-02T05:36:29.310Z,5.63
2023-04-02T05:39:24.132Z,5.73
2023-04-02T05:42:23.997Z,5.82
2023-04-02T05:45:37.612Z,5.94
2023-04-02T05:48:35.153Z,6.07
2023-04-02T05:51:29.159Z,6.14
2023-04-02T05:54:39.155Z,6.25
2023-04-02T05:57:44.584Z,6.38
2023-04-02T06:00:36.531Z,6.48
2023-04-02T06:03:41.105Z,6.56
2023-04-02T06:07:08.152Z,6.65
2023-04-02T06:10:05.117Z,6.71
2023-04-02T06:13:00.959Z,6.79
2023-04-02T06:15:48.287Z,6.86
2023-04-02T06:18:40.615Z,6.96
2023-04-02T06:21:26.246Z,7.10
2023-04-02T06:24:17.432Z,7.21
2023-04-02T06:27:07.197Z,7.36
2023-04-02T06:29:57.405Z,7.48
2023-04-02T06:32:44.818Z,7.57
2023-04-02T06:35:42.621Z,7.68
2023-04-02T06:38:31.604Z,7.78
2023-04-02T06:41:24.032Z,7.87
2023-04-02T06:44:28.346Z,7.93
2023-04-02T06:47:34.049Z,8.03
2023-04-02T06:50:33.475Z,8.13
2023-04-02T06:53:31.478Z,8.20
2023-04-02T06:56:46.861Z,8.28
2023-04-02T06:59:38.481Z,8.37
2023-04-02T07:02:36.004Z,8.46
2023-04-02T07:05:24.017Z,8.53
2023-04-02T07:08:10.433Z,8.59
2023-04-02T07:10:56.898Z,8.67
2023-04-02T07:13:44.090Z,8.76
2023-04-02T07:16:33.268Z,8.82
2023-04-02T07:19:22.286Z,8.90
2023-04-02T07:22:12.680Z,8.98
2023-04-02T07:25:01.169Z,9.05
2023-04-02T07:27:47.384Z,9.16
2023-04-02T07:30:33.121Z,9.26
2023-04-02T07:33:25.301Z,9.34
2023-04-02T07:36:24.293Z,9.47
2023-04-02T07:39:11.098Z,9.60
2023-04-02T07:41:59.453Z,9.70
2023-04-02T07:44:45.339Z,9.73
2023-04-02T07:47:32.008Z,9.79
2023-04-02T07:50:18.061Z,9.84
2023-04-02T07:53:04.311Z,9.89
2023-04-02T07:55:53.032Z,9.95
2023-04-02T07:58:38.779Z,10.03
2023-04-02T08:01:26.517Z,10.09
2023-04-02T08:04:23.005Z,10.11
2023-04-02T08:07:09.148Z,10.16
2023-04-02T08:09:55.097Z,10.19
2023-04-02T08:12:40.713Z,10.23
2023-04-02T08:15:26.371Z,10.25
2023-04-02T08:18:12.433Z,10.23
2023-04-02T08:20:58.732Z,10.25
2023-04-02T08:23:44.975Z,10.28
2023-04-02T08:26:31.307Z,10.36
2023-04-02T08:29:17.180Z,10.45
2023-04-02T08:32:03.299Z,10.58
2023-04-02T08:34:49.217Z,10.70
2023-04-02T08:37:34.990Z,10.83
2023-04-02T08:40:33.842Z,10.93
2023-04-02T08:43:42.106Z,10.98
2023-04-02T08:46:46.333Z,11.05
2023-04-02T08:49:58.297Z,11.12
2023-04-02T08:52:44.195Z,11.22
2023-04-02T09:00:13.680Z,11.45
2023-04-02T09:04:12.782Z,11.51
2023-04-02T09:07:00.096Z,11.56
2023-04-02T09:09:50.083Z,11.58
2023-04-02T09:13:48.591Z,11.64
2023-04-02T09:17:16.569Z,11.71
2023-04-02T09:20:21.411Z,11.76
2023-04-02T09:28:04.986Z,12.00
2023-04-02T09:31:35.146Z,12.16
2023-04-02T09:39:27.556Z,12.53
2023-04-02T09:42:46.676Z,12.67
2023-04-02T09:45:32.962Z,12.81
2023-04-02T09:48:23.454Z,12.96
2023-04-02T09:51:44.131Z,13.11
2023-04-02T09:54:29.753Z,13.32
2023-04-02T09:57:27.409Z,13.51
2023-04-02T10:00:32.547Z,13.73
2023-04-02T10:03:27.295Z,13.97
2023-04-02T10:06:15.082Z,14.16
2023-04-02T10:09:22.248Z,14.29
2023-04-02T10:12:21.176Z,14.41
2023-04-02T10:15:07.867Z,14.55
2023-04-02T10:18:08.357Z,14.71
2023-04-02T10:20:57.506Z,14.98
2023-04-02T10:23:43.756Z,15.25
2023-04-02T10:26:38.597Z,15.54
2023-04-02T10:29:42.889Z,15.81
2023-04-02T10:32:42.092Z,16.00
2023-04-02T10:35:40.121Z,16.15
2023-04-02T10:38:45.459Z,16.34
2023-04-02T10:41:53.545Z,16.55
2023-04-02T10:44:43.650Z,16.71
2023-04-02T10:47:50.948Z,16.88
2023-04-02T10:51:20.660Z,17.11
2023-04-02T10:54:39.916Z,17.35
2023-04-02T10:57:41.273Z,17.46
2023-04-02T11:01:16.950Z,17.65
2023-04-02T11:04:51.239Z,17.91
2023-04-02T11:08:05.099Z,18.08
2023-04-02T11:10:57.720Z,18.25
2023-04-02T11:14:05.167Z,18.47
2023-04-02T11:16:52.689Z,18.71
2023-04-02T11:20:43.426Z,18.97
2023-04-02T11:23:36.805Z,19.22
2023-04-02T11:26:53.753Z,19.33
2023-04-02T11:34:01.027Z,19.44
2023-04-02T11:36:55.798Z,19.36
2023-04-02T11:39:56.944Z,19.26
2023-04-02T11:42:49.822Z,19.15
2023-04-02T11:45:54.877Z,19.11
2023-04-02T11:48:41.000Z,19.17
2023-04-02T11:51:32.975Z,19.60
2023-04-02T11:54:38.417Z,20.76
2023-04-02T11:58:03.071Z,22.34
2023-04-02T12:01:16.886Z,24.32
2023-04-02T12:12:39.889Z,27.72
2023-04-02T12:15:44.750Z,28.12
2023-04-02T12:18:33.181Z,28.35
2023-04-02T12:21:21.038Z,28.70
2023-04-02T12:24:19.422Z,28.86
2023-04-02T12:27:42.518Z,28.58
2023-04-02T12:30:28.654Z,27.93
2023-04-02T12:37:03.748Z,26.45
2023-04-02T12:40:04.688Z,26.05
2023-04-02T12:42:50.673Z,25.81
2023-04-02T12:46:03.721Z,25.82
2023-04-02T12:49:23.788Z,26.04
2023-04-02T12:52:12.385Z,26.28
2023-04-02T12:55:03.096Z,26.51
2023-04-02T12:57:50.198Z,26.82
2023-04-02T13:00:36.784Z,27.11
2023-04-02T13:03:23.207Z,27.21
2023-04-02T13:06:23.411Z,27.51
2023-04-02T13:09:35.838Z,28.13
2023-04-02T13:12:38.742Z,28.86
2023-04-02T13:15:37.236Z,29.52
2023-04-02T13:18:23.528Z,29.86
2023-04-02T13:21:28.339Z,29.42
2023-04-02T13:24:20.629Z,28.61
2023-04-02T13:27:06.655Z,27.88
2023-04-02T13:29:52.642Z,27.23
2023-04-02T13:32:39.321Z,26.60
2023-04-02T13:35:26.740Z,26.47
2023-04-02T13:38:15.122Z,26.83
2023-04-02T13:41:00.921Z,27.57
2023-04-02T13:43:47.028Z,28.42
2023-04-02T13:46:34.777Z,29.25
2023-04-02T13:49:21.552Z,30.02
2023-04-02T13:52:11.410Z,30.66
2023-04-02T13:55:00.703Z,31.19
2023-04-02T13:57:46.585Z,31.48
2023-04-02T14:00:32.643Z,31.71
2023-04-02T14:03:22.432Z,31.84
2023-04-02T14:06:52.489Z,32.01
2023-04-02T14:10:07.702Z,32.29
2023-04-02T14:13:18.434Z,32.57
2023-04-02T14:16:16.503Z,32.82
2023-04-02T14:19:26.091Z,33.21
2023-04-02T14:22:46.292Z,33.76
2023-04-02T14:25:41.253Z,34.04
2023-04-02T14:28:49.804Z,34.44
2023-04-02T14:32:09.805Z,34.44
2023-04-02T14:35:07.676Z,34.68
2023-04-02T14:38:15.548Z,35.05
2023-04-02T14:41:24.948Z,35.05
2023-04-02T14:44:12.348Z,35.18
2023-04-02T14:47:23.346Z,35.51
2023-04-02T14:50:28.080Z,35.32
2023-04-02T14:53:51.737Z,34.35
2023-04-02T14:57:16.986Z,32.58
2023-04-02T15:00:24.406Z,30.67
2023-04-02T15:03:26.011Z,29.08
2023-04-02T15:06:19.035Z,27.78
2023-04-02T15:09:27.673Z,26.71
2023-04-02T15:12:24.047Z,25.70
2023-04-02T15:15:40.819Z,24.82
2023-04-02T15:18:27.464Z,24.06
2023-04-02T15:21:19.462Z,23.51
2023-04-02T15:24:11.509Z,23.07
2023-04-02T15:27:35.034Z,22.75
2023-04-02T15:30:28.041Z,22.49
2023-04-02T15:33:38.900Z,22.29
2023-04-02T15:36:41.566Z,22.01
2023-04-02T15:39:36.854Z,21.85
2023-04-02T15:42:29.550Z,21.73
2023-04-02T15:45:22.871Z,21.68
2023-04-02T15:48:24.334Z,21.67
2023-04-02T15:51:26.488Z,21.74
2023-04-02T15:54:29.952Z,21.82
2023-04-02T15:57:29.454Z,21.81
2023-04-02T16:00:32.723Z,21.80
2023-04-02T16:03:18.609Z,21.68
2023-04-02T16:06:26.654Z,21.50
2023-04-02T16:09:23.318Z,21.27
2023-04-02T16:12:16.187Z,20.81
2023-04-02T16:15:15.601Z,20.35
2023-04-02T16:18:26.871Z,19.91
2023-04-02T16:21:16.004Z,19.46
2023-04-02T16:24:01.913Z,19.08
2023-04-02T16:27:16.333Z,18.64
2023-04-02T16:30:35.814Z,18.28
2023-04-02T16:33:35.633Z,17.96
2023-04-02T16:36:43.065Z,17.68
2023-04-02T16:39:57.164Z,17.48
2023-04-02T16:43:15.885Z,17.24
2023-04-02T16:46:22.541Z,17.05
2023-04-02T16:49:36.913Z,16.84
2023-04-02T16:52:47.716Z,16.63
2023-04-02T16:56:08.050Z,16.40
2023-04-02T16:59:09.369Z,16.24
2023-04-02T17:02:36.072Z,16.06
2023-04-02T17:05:28.495Z,15.90
2023-04-02T17:08:24.713Z,15.77
2023-04-02T17:11:26.109Z,15.61
2023-04-02T17:14:24.338Z,15.49
2023-04-02T17:17:12.337Z,15.43
2023-04-02T17:20:00.742Z,15.38
2023-04-02T17:22:47.595Z,15.35
2023-04-02T17:25:37.175Z,15.29
2023-04-02T17:28:29.264Z,15.21
2023-04-02T17:31:25.592Z,15.19
2023-04-02T17:34:14.002Z,15.10
2023-04-02T17:37:07.052Z,14.99
2023-04-02T17:40:04.273Z,14.88
2023-04-02T17:43:02.803Z,14.84
2023-04-02T17:45:51.912Z,14.82
2023-04-02T17:48:47.970Z,14.80
2023-04-02T17:51:45.618Z,14.74
2023-04-02T17:54:59.604Z,14.69
2023-04-02T17:58:22.920Z,14.62
2023-04-02T18:01:18.976Z,14.58
2023-04-02T18:04:26.448Z,14.50
2023-04-02T18:07:12.413Z,14.45
2023-04-02T18:10:16.146Z,14.32
2023-04-02T18:13:28.036Z,14.22
2023-04-02T18:16:27.252Z,14.08
2023-04-02T18:19:21.449Z,13.95
2023-04-02T18:22:33.632Z,13.81
2023-04-02T18:25:50.204Z,13.66
2023-04-02T18:28:41.933Z,13.59
2023-04-02T18:31:52.674Z,13.53
2023-04-02T18:35:13.162Z,13.47
2023-04-02T18:38:21.970Z,13.42
2023-04-02T18:41:19.756Z,13.40
2023-04-02T18:44:33.504Z,13.39
2023-04-02T18:47:35.481Z,13.36
2023-04-02T18:50:28.101Z,13.39
2023-04-02T18:53:19.422Z,13.39
2023-04-02T18:56:11.453Z,13.38
2023-04-02T18:59:13.449Z,13.36
2023-04-02T19:02:01.443Z,13.37
2023-04-02T19:04:58.596Z,13.32
2023-04-02T19:07:46.664Z,13.34
2023-04-02T19:10:38.577Z,13.32
2023-04-02T19:13:24.545Z,13.28
2023-04-02T19:16:19.617Z,13.28
2023-04-02T19:19:21.889Z,13.22
2023-04-02T19:22:50.760Z,13.15
2023-04-02T19:25:49.633Z,13.11
2023-04-02T19:29:19.624Z,13.06
2023-04-02T19:32:27.720Z,13.04
2023-04-02T19:35:22.664Z,13.06
2023-04-02T19:38:29.600Z,13.00
2023-04-02T19:41:51.545Z,13.00
2023-04-02T19:44:43.261Z,12.92
2023-04-02T19:47:29.656Z,12.93
2023-04-02T19:50:34.259Z,12.88
2023-04-02T19:53:20.410Z,12.87
2023-04-02T19:56:06.486Z,12.83
2023-04-02T19:58:52.608Z,12.80
2023-04-02T20:01:39.108Z,12.75
2023-04-02T20:04:25.635Z,12.73
2023-04-02T20:07:12.565Z,12.68
2023-04-02T20:09:58.751Z,12.59
2023-04-02T20:12:47.912Z,12.57
2023-04-02T20:16:14.557Z,12.50
2023-04-02T20:19:18.972Z,12.43
2023-04-02T20:22:49.489Z,12.33
2023-04-02T20:25:35.666Z,12.27
2023-04-02T20:28:22.471Z,12.23
2023-04-02T20:31:50.282Z,12.12
2023-04-02T20:34:36.867Z,12.04
2023-04-02T20:37:22.982Z,12.02
2023-04-02T20:40:10.177Z,11.95
2023-04-02T20:43:19.123Z,11.83
2023-04-02T20:46:08.343Z,11.79
2023-04-02T20:48:57.266Z,11.75
2023-04-02T20:51:43.297Z,11.71
2023-04-02T20:54:28.926Z,11.70
2023-04-02T20:57:14.496Z,11.68
2023-04-02T21:00:02.613Z,11.64
2023-04-02T21:03:21.237Z,11.56
2023-04-02T21:06:18.762Z,11.53
2023-04-02T21:10:14.250Z,11.47
2023-04-02T21:13:00.182Z,11.43
2023-04-02T21:15:45.872Z,11.41
2023-04-02T21:19:08.394Z,11.35
2023-04-02T21:21:54.823Z,11.36
2023-04-02T21:24:40.630Z,11.30
2023-04-02T21:27:26.473Z,11.29
2023-04-02T21:30:12.704Z,11.25
2023-04-02T21:32:58.815Z,11.19
2023-04-02T21:35:44.660Z,11.15
2023-04-02T21:38:32.582Z,11.10
2023-04-02T21:41:22.348Z,11.05
2023-04-02T21:44:10.617Z,10.98
2023-04-02T21:46:56.507Z,10.94
2023-04-02T21:49:42.909Z,10.91
2023-04-02T21:52:28.830Z,10.87
2023-04-02T21:55:14.594Z,10.83
2023-04-02T21:58:00.374Z,10.78
2023-04-02T22:00:46.253Z,10.74
2023-04-02T22:03:33.939Z,10.75
2023-04-02T22:06:21.124Z,10.73
2023-04-02T22:09:10.016Z,10.76
2023-04-02T22:12:01.564Z,10.79
2023-04-02T22:14:47.392Z,10.83
2023-04-02T22:17:33.260Z,10.83
2023-04-02T22:20:18.914Z,10.84
2023-04-02T22:23:16.545Z,10.85
2023-04-02T22:26:10.740Z,10.85
2023-04-02T22:29:31.624Z,10.85
2023-04-02T22:32:29.943Z,10.87
2023-04-02T22:35:22.263Z,10.88
2023-04-02T22:38:09.182Z,10.87
2023-04-02T22:41:08.744Z,10.81
2023-04-02T22:43:59.052Z,10.84
2023-04-02T22:46:45.035Z,10.78
2023-04-02T22:49:30.723Z,10.78
2023-04-02T22:52:19.488Z,10.74
2023-04-02T22:55:08.065Z,10.73
2023-04-02T22:57:54.133Z,10.70
2023-04-02T23:00:40.049Z,10.68
2023-04-02T23:03:25.943Z,10.70
2023-04-02T23:06:17.399Z,10.68
2023-04-02T23:09:04.244Z,10.63
2023-04-02T23:11:50.093Z,10.66
2023-04-02T23:14:39.910Z,10.64
2023-04-02T23:17:25.582Z,10.62
2023-04-02T23:20:29.622Z,10.61
2023-04-02T23:23:18.818Z,10.55
2023-04-02T23:26:12.776Z,10.56
2023-04-02T23:28:59.749Z,10.53
2023-04-02T23:32:17.002Z,10.49
2023-04-02T23:44:16.751Z,10.41
2023-04-02T23:47:02.406Z,10.42
2023-04-02T23:50:56.441Z,10.42
2023-04-02T23:53:43.470Z,10.44
2023-04-02T23:56:29.676Z,10.48
2023-04-02T23:59:15.617Z,10.49
